Terminal Aerodrome Forecast
Issued by NWS

Home | Current Version | Previous Version | Graphics & Text | Print | Product List | Glossary On
Versions: 1 2 3 4 5 6 7 8 9 10 11 12 13 14 15
000
FTUS45 KGGW 170527
TAFGDV
TAF
KGDV 170527Z 1706/1806 12012KT P6SM BKN080
     FM170800 10012KT P6SM BKN070 WS020/14035KT
     FM171200 11008KT P6SM VCSH BKN025
     FM171500 11008KT P6SM -SHRA OVC015
     FM171700 35007KT P6SM -SHRA OVC008
     FM180000 30010KT P6SM BKN040=

USA.gov is the U.S. government's official web portal to all federal, state and local government web resources and services.